Jacksonville, FL (32258)

10:39 PM EDT on July 28, 2016 (GMT -0400)
Bartram Springs | | Change Station

Elev 46 ft 30.12 °N, 81.51 °W | Updated 24 seconds ago

Mostly Cloudy
Mostly Cloudy
79.3 °F
Feels Like 83 °F
N
0.0
Wind Variable Wind from SSE
Gusts 0.0 mph

Today
High -- | Low -- °F
--% Chance of Precip.
Yesterday
High -- | Low -- °F
Precip. -- in
Pressure 30.02 in
Visibility 10.0 miles
Clouds Few 4500 ft
Mostly Cloudy 7000 ft
Mostly Cloudy 12000 ft
Mostly Cloudy 25000 ft
Heat Index 83 °F
Dew Point 74 °F
Humidity 83%
Rainfall --
Snow Depth Not available.
6:42 AM 8:22 PM
Waning Crescent, 26% visible
METAR KNIP 290153Z 15009KT 10SM FEW045 BKN070 BKN120 BKN250 32/23 A3003 RMK AO2 SLP165 T2 SET T03170228 $
Pressure 30.02 in
Visibility 10.0 miles
Clouds Few 4500 ft
Mostly Cloudy 7000 ft
Mostly Cloudy 12000 ft
Mostly Cloudy 25000 ft
Heat Index 83 °F
Dew Point 74 °F
Humidity 83%
Rainfall --
Snow Depth Not available.
6:42 AM 8:22 PM
Waning Crescent, 26% visible
METAR KNIP 290153Z 15009KT 10SM FEW045 BKN070 BKN120 BKN250 32/23 A3003 RMK AO2 SLP165 T2 SET T03170228 $

10-Day Weather Forecast

Almanac

Astronomy

Jul. 28, 2016 Rise Set
Actual Time
Civil Twilight
Nautical Twilight
Astronomical Twilight
Moon
Length of Visible Light
Length of Day
Tomorrow will be .
, % of the Moon is Illuminated

Today's Extremes

State Highs State Lows

Community

WunderPhotos

Upload Photos

1,928,273 photos uploaded!

WunderBlog® & News

Nearby

Air Quality

  Air Quality AQ Index Pollutant
Not available.

Snow Depth

Station Depth Elevation

Earthquake Activity

City Distance Mag. Time & Date
Minimum magnitude displayed is 2.5.

Coastal Water Temperatures

Place Temperature

Stations

Nearby Weather Stations

Station Location Temp. Windchill Dew Point Humidity Wind Precip. Elev Updated Type
                   

Watches & Warnings

There are currently no watches in effect.